sensor_id;sensor_type;location;lat;lon;timestamp;pressure;altitude;pressure_sealevel;temperature;humidity
62420;BME280;48460;51.616;5.426;2022-08-21T00:02:26;101667.50;;;14.29;100.00
62420;BME280;48460;51.616;5.426;2022-08-21T00:04:52;101667.69;;;14.26;100.00
62420;BME280;48460;51.616;5.426;2022-08-21T00:07:21;101662.72;;;14.20;100.00
62420;BME280;48460;51.616;5.426;2022-08-21T00:09:47;101665.38;;;14.20;100.00
62420;BME280;48460;51.616;5.426;2022-08-21T00:12:12;101662.03;;;14.16;100.00
62420;BME280;48460;51.616;5.426;2022-08-21T00:14:39;101665.59;;;14.15;100.00
62420;BME280;48460;51.616;5.426;2022-08-21T00:17:05;101653.38;;;14.12;100.00
62420;BME280;48460;51.616;5.426;2022-08-21T00:19:31;101655.34;;;14.09;100.00
62420;BME280;48460;51.616;5.426;2022-08-21T00:21:56;101647.41;;;14.09;100.00
62420;BME280;48460;51.616;5.426;2022-08-21T00:24:25;101655.19;;;14.12;100.00
62420;BME280;48460;51.616;5.426;2022-08-21T00:26:51;101658.84;;;14.09;100.00
62420;BME280;48460;51.616;5.426;2022-08-21T00:29:17;101655.69;;;14.03;100.00
62420;BME280;48460;51.616;5.426;2022-08-21T00:31:43;101653.97;;;14.02;100.00
62420;BME280;48460;51.616;5.426;2022-08-21T00:34:09;101647.06;;;13.99;100.00
62420;BME280;48460;51.616;5.426;2022-08-21T00:36:36;101650.66;;;13.98;100.00
62420;BME280;48460;51.616;5.426;2022-08-21T00:39:07;101653.38;;;13.97;100.00
62420;BME280;48460;51.616;5.426;2022-08-21T00:41:35;101650.03;;;13.93;100.00
62420;BME280;48460;51.616;5.426;2022-08-21T00:44:01;101640.53;;;13.89;100.00
62420;BME280;48460;51.616;5.426;2022-08-21T00:46:27;101649.41;;;13.88;100.00
62420;BME280;48460;51.616;5.426;2022-08-21T00:48:52;101653.22;;;13.82;100.00
62420;BME280;48460;51.616;5.426;2022-08-21T00:51:27;101643.59;;;13.81;100.00
62420;BME280;48460;51.616;5.426;2022-08-21T00:53:57;101640.88;;;13.83;100.00
62420;BME280;48460;51.616;5.426;2022-08-21T00:56:24;101645.81;;;13.89;100.00
62420;BME280;48460;51.616;5.426;2022-08-21T00:58:52;101655.50;;;13.73;100.00
62420;BME280;48460;51.616;5.426;2022-08-21T01:01:19;101650.59;;;13.65;100.00
62420;BME280;48460;51.616;5.426;2022-08-21T01:03:47;101653.03;;;13.70;100.00
62420;BME280;48460;51.616;5.426;2022-08-21T01:06:13;101648.28;;;13.76;100.00
62420;BME280;48460;51.616;5.426;2022-08-21T01:08:44;101655.66;;;13.87;100.00
62420;BME280;48460;51.616;5.426;2022-08-21T01:11:10;101650.97;;;13.92;100.00
62420;BME280;48460;51.616;5.426;2022-08-21T01:13:43;101648.91;;;13.97;100.00
62420;BME280;48460;51.616;5.426;2022-08-21T01:16:13;101657.19;;;13.91;100.00
62420;BME280;48460;51.616;5.426;2022-08-21T01:18:40;101656.88;;;13.80;100.00
62420;BME280;48460;51.616;5.426;2022-08-21T01:21:21;101652.81;;;13.74;100.00
62420;BME280;48460;51.616;5.426;2022-08-21T01:23:52;101645.56;;;13.78;100.00
62420;BME280;48460;51.616;5.426;2022-08-21T01:26:23;101655.88;;;13.82;100.00
62420;BME280;48460;51.616;5.426;2022-08-21T01:28:54;101647.72;;;13.87;100.00
62420;BME280;48460;51.616;5.426;2022-08-21T01:31:24;101647.78;;;13.85;100.00
62420;BME280;48460;51.616;5.426;2022-08-21T01:33:51;101640.69;;;13.86;100.00
62420;BME280;48460;51.616;5.426;2022-08-21T01:36:19;101651.59;;;13.80;99.94
62420;BME280;48460;51.616;5.426;2022-08-21T01:38:47;101646.56;;;13.75;100.00
62420;BME280;48460;51.616;5.426;2022-08-21T01:41:14;101652.19;;;13.69;100.00
62420;BME280;48460;51.616;5.426;2022-08-21T01:43:40;101653.50;;;13.60;100.00
62420;BME280;48460;51.616;5.426;2022-08-21T01:46:06;101654.69;;;13.55;100.00
62420;BME280;48460;51.616;5.426;2022-08-21T01:48:32;101644.41;;;13.49;100.00
62420;BME280;48460;51.616;5.426;2022-08-21T01:50:57;101647.22;;;13.45;100.00
62420;BME280;48460;51.616;5.426;2022-08-21T01:53:23;101639.34;;;13.44;100.00
62420;BME280;48460;51.616;5.426;2022-08-21T01:55:49;101647.44;;;13.41;100.00
62420;BME280;48460;51.616;5.426;2022-08-21T01:58:14;101642.16;;;13.41;100.00
62420;BME280;48460;51.616;5.426;2022-08-21T02:00:43;101647.59;;;13.38;100.00
62420;BME280;48460;51.616;5.426;2022-08-21T02:03:09;101641.56;;;13.36;100.00
62420;BME280;48460;51.616;5.426;2022-08-21T02:05:34;101640.00;;;13.32;100.00
62420;BME280;48460;51.616;5.426;2022-08-21T02:08:00;101633.84;;;13.31;100.00
62420;BME280;48460;51.616;5.426;2022-08-21T02:10:28;101632.22;;;13.29;100.00
62420;BME280;48460;51.616;5.426;2022-08-21T02:12:55;101628.66;;;13.30;100.00
62420;BME280;48460;51.616;5.426;2022-08-21T02:15:24;101628.72;;;13.28;100.00
62420;BME280;48460;51.616;5.426;2022-08-21T02:17:52;101623.59;;;13.25;100.00
62420;BME280;48460;51.616;5.426;2022-08-21T02:20:30;101625.16;;;13.29;100.00
62420;BME280;48460;51.616;5.426;2022-08-21T02:22:56;101620.66;;;13.31;100.00
62420;BME280;48460;51.616;5.426;2022-08-21T02:25:27;101620.50;;;13.34;100.00
62420;BME280;48460;51.616;5.426;2022-08-21T02:27:53;101624.75;;;13.37;100.00
62420;BME280;48460;51.616;5.426;2022-08-21T02:30:25;101622.91;;;13.39;100.00
62420;BME280;48460;51.616;5.426;2022-08-21T02:32:51;101625.47;;;13.40;100.00
62420;BME280;48460;51.616;5.426;2022-08-21T02:35:17;101625.63;;;13.37;100.00
62420;BME280;48460;51.616;5.426;2022-08-21T02:38:12;101621.19;;;13.38;100.00
62420;BME280;48460;51.616;5.426;2022-08-21T02:40:42;101624.38;;;13.27;100.00
62420;BME280;48460;51.616;5.426;2022-08-21T02:43:11;101620.91;;;13.08;100.00
62420;BME280;48460;51.616;5.426;2022-08-21T02:45:38;101608.53;;;12.91;100.00
62420;BME280;48460;51.616;5.426;2022-08-21T02:48:07;101612.91;;;12.92;100.00
62420;BME280;48460;51.616;5.426;2022-08-21T02:50:37;101612.97;;;12.90;100.00
62420;BME280;48460;51.616;5.426;2022-08-21T02:53:05;101606.06;;;12.88;100.00
62420;BME280;48460;51.616;5.426;2022-08-21T02:55:37;101607.00;;;12.87;100.00
62420;BME280;48460;51.616;5.426;2022-08-21T02:58:13;101611.19;;;12.91;100.00
62420;BME280;48460;51.616;5.426;2022-08-21T03:00:39;101613.69;;;12.94;100.00
62420;BME280;48460;51.616;5.426;2022-08-21T03:03:07;101618.88;;;12.95;100.00
62420;BME280;48460;51.616;5.426;2022-08-21T03:05:35;101612.09;;;12.72;100.00
62420;BME280;48460;51.616;5.426;2022-08-21T03:08:07;101619.59;;;12.63;100.00
62420;BME280;48460;51.616;5.426;2022-08-21T03:10:37;101615.75;;;12.51;100.00
62420;BME280;48460;51.616;5.426;2022-08-21T03:13:05;101616.75;;;12.48;100.00
62420;BME280;48460;51.616;5.426;2022-08-21T03:15:36;101614.06;;;12.50;100.00
62420;BME280;48460;51.616;5.426;2022-08-21T03:18:06;101614.81;;;12.52;100.00
62420;BME280;48460;51.616;5.426;2022-08-21T03:20:33;101609.50;;;12.53;100.00
62420;BME280;48460;51.616;5.426;2022-08-21T03:22:59;101604.13;;;12.55;100.00
62420;BME280;48460;51.616;5.426;2022-08-21T03:25:30;101599.50;;;12.60;100.00
62420;BME280;48460;51.616;5.426;2022-08-21T03:28:02;101608.50;;;12.56;100.00
62420;BME280;48460;51.616;5.426;2022-08-21T03:30:28;101599.78;;;12.54;100.00
62420;BME280;48460;51.616;5.426;2022-08-21T03:32:56;101607.06;;;12.49;100.00
62420;BME280;48460;51.616;5.426;2022-08-21T03:35:25;101596.50;;;12.49;100.00
62420;BME280;48460;51.616;5.426;2022-08-21T03:37:53;101593.03;;;12.48;100.00
62420;BME280;48460;51.616;5.426;2022-08-21T03:40:21;101592.13;;;12.49;100.00
62420;BME280;48460;51.616;5.426;2022-08-21T03:42:47;101597.53;;;12.46;100.00
62420;BME280;48460;51.616;5.426;2022-08-21T03:45:14;101593.97;;;12.47;100.00
62420;BME280;48460;51.616;5.426;2022-08-21T03:47:52;101596.34;;;12.52;100.00
62420;BME280;48460;51.616;5.426;2022-08-21T03:50:22;101593.66;;;12.53;100.00
62420;BME280;48460;51.616;5.426;2022-08-21T03:52:49;101588.38;;;12.53;100.00
62420;BME280;48460;51.616;5.426;2022-08-21T03:55:14;101588.09;;;12.60;100.00
62420;BME280;48460;51.616;5.426;2022-08-21T03:57:40;101593.38;;;12.60;100.00
62420;BME280;48460;51.616;5.426;2022-08-21T04:00:06;101590.78;;;12.58;100.00
62420;BME280;48460;51.616;5.426;2022-08-21T04:02:34;101591.88;;;12.54;100.00
62420;BME280;48460;51.616;5.426;2022-08-21T04:05:01;101587.25;;;12.59;100.00
62420;BME280;48460;51.616;5.426;2022-08-21T04:07:26;101584.75;;;12.56;100.00
62420;BME280;48460;51.616;5.426;2022-08-21T04:09:54;101591.22;;;12.49;100.00
62420;BME280;48460;51.616;5.426;2022-08-21T04:12:20;101597.78;;;12.40;100.00
62420;BME280;48460;51.616;5.426;2022-08-21T04:14:45;101593.25;;;12.25;100.00
62420;BME280;48460;51.616;5.426;2022-08-21T04:17:28;101600.22;;;12.07;100.00
62420;BME280;48460;51.616;5.426;2022-08-21T04:19:53;101597.13;;;11.99;100.00
62420;BME280;48460;51.616;5.426;2022-08-21T04:22:19;101602.63;;;11.93;100.00
62420;BME280;48460;51.616;5.426;2022-08-21T04:24:44;101608.94;;;11.90;100.00
62420;BME280;48460;51.616;5.426;2022-08-21T04:27:12;101608.72;;;11.95;100.00
62420;BME280;48460;51.616;5.426;2022-08-21T04:29:38;101605.09;;;11.97;100.00
62420;BME280;48460;51.616;5.426;2022-08-21T04:32:03;101606.63;;;12.01;100.00
62420;BME280;48460;51.616;5.426;2022-08-21T04:34:29;101603.09;;;12.02;100.00
62420;BME280;48460;51.616;5.426;2022-08-21T04:36:57;101614.41;;;12.04;100.00
62420;BME280;48460;51.616;5.426;2022-08-21T04:39:24;101616.34;;;12.01;100.00
62420;BME280;48460;51.616;5.426;2022-08-21T04:41:50;101611.00;;;12.02;100.00
62420;BME280;48460;51.616;5.426;2022-08-21T04:44:17;101615.22;;;12.06;100.00
62420;BME280;48460;51.616;5.426;2022-08-21T04:46:45;101616.91;;;12.07;100.00
62420;BME280;48460;51.616;5.426;2022-08-21T04:49:13;101616.84;;;12.09;100.00
62420;BME280;48460;51.616;5.426;2022-08-21T04:51:39;101615.06;;;12.09;100.00
62420;BME280;48460;51.616;5.426;2022-08-21T04:54:11;101610.50;;;12.13;100.00
62420;BME280;48460;51.616;5.426;2022-08-21T04:56:42;101608.75;;;12.14;100.00
62420;BME280;48460;51.616;5.426;2022-08-21T04:59:13;101608.00;;;12.10;100.00
62420;BME280;48460;51.616;5.426;2022-08-21T05:01:42;101618.41;;;12.13;100.00
62420;BME280;48460;51.616;5.426;2022-08-21T05:04:11;101615.78;;;12.13;100.00
62420;BME280;48460;51.616;5.426;2022-08-21T05:06:38;101613.94;;;12.15;100.00
62420;BME280;48460;51.616;5.426;2022-08-21T05:09:06;101619.34;;;12.12;100.00
62420;BME280;48460;51.616;5.426;2022-08-21T05:11:34;101622.19;;;12.07;100.00
62420;BME280;48460;51.616;5.426;2022-08-21T05:14:00;101626.59;;;12.07;100.00
62420;BME280;48460;51.616;5.426;2022-08-21T05:16:27;101625.75;;;12.06;100.00
62420;BME280;48460;51.616;5.426;2022-08-21T05:18:53;101627.41;;;12.09;100.00
62420;BME280;48460;51.616;5.426;2022-08-21T05:21:19;101633.22;;;12.16;100.00
62420;BME280;48460;51.616;5.426;2022-08-21T05:23:44;101631.41;;;12.18;100.00
62420;BME280;48460;51.616;5.426;2022-08-21T05:26:09;101641.56;;;12.25;100.00
62420;BME280;48460;51.616;5.426;2022-08-21T05:28:35;101639.59;;;12.30;100.00
62420;BME280;48460;51.616;5.426;2022-08-21T05:31:01;101639.59;;;12.30;100.00
62420;BME280;48460;51.616;5.426;2022-08-21T05:33:26;101642.16;;;12.32;100.00
62420;BME280;48460;51.616;5.426;2022-08-21T05:35:53;101645.56;;;12.34;100.00
62420;BME280;48460;51.616;5.426;2022-08-21T05:38:21;101646.44;;;12.35;100.00
62420;BME280;48460;51.616;5.426;2022-08-21T05:40:46;101638.44;;;12.36;100.00
62420;BME280;48460;51.616;5.426;2022-08-21T05:43:12;101648.84;;;12.39;100.00
62420;BME280;48460;51.616;5.426;2022-08-21T05:45:37;101641.34;;;12.49;100.00
62420;BME280;48460;51.616;5.426;2022-08-21T05:48:29;101647.63;;;12.65;100.00
62420;BME280;48460;51.616;5.426;2022-08-21T05:50:55;101642.25;;;12.86;100.00
62420;BME280;48460;51.616;5.426;2022-08-21T05:53:22;101644.94;;;13.03;100.00
62420;BME280;48460;51.616;5.426;2022-08-21T05:55:48;101649.13;;;13.25;100.00
62420;BME280;48460;51.616;5.426;2022-08-21T05:58:19;101642.88;;;13.44;100.00
62420;BME280;48460;51.616;5.426;2022-08-21T06:00:46;101644.63;;;13.61;100.00
62420;BME280;48460;51.616;5.426;2022-08-21T06:03:28;101647.19;;;13.80;100.00
62420;BME280;48460;51.616;5.426;2022-08-21T06:05:54;101642.78;;;13.97;100.00
62420;BME280;48460;51.616;5.426;2022-08-21T06:08:22;101640.31;;;14.09;100.00
62420;BME280;48460;51.616;5.426;2022-08-21T06:10:49;101636.88;;;14.25;100.00
62420;BME280;48460;51.616;5.426;2022-08-21T06:13:16;101635.69;;;14.46;100.00
62420;BME280;48460;51.616;5.426;2022-08-21T06:15:41;101641.28;;;14.57;100.00
62420;BME280;48460;51.616;5.426;2022-08-21T06:18:09;101642.28;;;14.71;100.00
62420;BME280;48460;51.616;5.426;2022-08-21T06:20:35;101648.50;;;14.86;100.00
62420;BME280;48460;51.616;5.426;2022-08-21T06:23:01;101652.31;;;14.96;100.00
62420;BME280;48460;51.616;5.426;2022-08-21T06:25:30;101655.88;;;15.11;100.00
62420;BME280;48460;51.616;5.426;2022-08-21T06:28:07;101651.13;;;15.32;100.00
62420;BME280;48460;51.616;5.426;2022-08-21T06:30:34;101645.38;;;15.39;100.00
62420;BME280;48460;51.616;5.426;2022-08-21T06:33:00;101650.41;;;15.58;100.00
62420;BME280;48460;51.616;5.426;2022-08-21T06:35:25;101639.22;;;15.69;99.69
62420;BME280;48460;51.616;5.426;2022-08-21T06:37:51;101646.69;;;15.91;97.67
62420;BME280;48460;51.616;5.426;2022-08-21T06:40:17;101644.81;;;15.93;97.12
62420;BME280;48460;51.616;5.426;2022-08-21T06:42:42;101650.50;;;15.87;97.10
62420;BME280;48460;51.616;5.426;2022-08-21T06:45:08;101657.81;;;15.98;97.51
62420;BME280;48460;51.616;5.426;2022-08-21T06:47:34;101649.16;;;16.08;98.39
62420;BME280;48460;51.616;5.426;2022-08-21T06:49:59;101642.16;;;16.22;97.52
62420;BME280;48460;51.616;5.426;2022-08-21T06:52:25;101641.16;;;16.51;98.13
62420;BME280;48460;51.616;5.426;2022-08-21T06:54:50;101647.81;;;16.71;95.49
62420;BME280;48460;51.616;5.426;2022-08-21T06:57:16;101646.16;;;16.97;94.29
62420;BME280;48460;51.616;5.426;2022-08-21T06:59:41;101650.56;;;17.11;92.50
62420;BME280;48460;51.616;5.426;2022-08-21T07:02:07;101653.06;;;17.00;93.43
62420;BME280;48460;51.616;5.426;2022-08-21T07:04:37;101644.28;;;17.12;94.23
62420;BME280;48460;51.616;5.426;2022-08-21T07:07:03;101638.75;;;17.15;92.65
62420;BME280;48460;51.616;5.426;2022-08-21T07:09:28;101638.97;;;17.25;92.50
62420;BME280;48460;51.616;5.426;2022-08-21T07:11:56;101642.84;;;17.34;92.74
62420;BME280;48460;51.616;5.426;2022-08-21T07:14:22;101649.47;;;17.66;92.87
62420;BME280;48460;51.616;5.426;2022-08-21T07:16:48;101653.13;;;17.78;90.61
62420;BME280;48460;51.616;5.426;2022-08-21T07:19:14;101644.38;;;18.02;91.76
62420;BME280;48460;51.616;5.426;2022-08-21T07:21:39;101645.22;;;18.15;89.92
62420;BME280;48460;51.616;5.426;2022-08-21T07:24:05;101632.84;;;18.27;88.27
62420;BME280;48460;51.616;5.426;2022-08-21T07:26:31;101631.81;;;18.53;88.07
62420;BME280;48460;51.616;5.426;2022-08-21T07:28:56;101634.53;;;18.77;87.65
62420;BME280;48460;51.616;5.426;2022-08-21T07:31:24;101632.31;;;18.58;87.93
62420;BME280;48460;51.616;5.426;2022-08-21T07:33:50;101636.50;;;18.50;87.94
62420;BME280;48460;51.616;5.426;2022-08-21T07:36:16;101633.50;;;18.54;88.85
62420;BME280;48460;51.616;5.426;2022-08-21T07:38:42;101648.97;;;18.49;88.23
62420;BME280;48460;51.616;5.426;2022-08-21T07:41:37;101629.69;;;18.45;89.22
62420;BME280;48460;51.616;5.426;2022-08-21T07:44:03;101642.53;;;18.64;87.37
62420;BME280;48460;51.616;5.426;2022-08-21T07:46:28;101639.28;;;18.85;87.17
62420;BME280;48460;51.616;5.426;2022-08-21T07:48:55;101641.16;;;18.96;86.84
62420;BME280;48460;51.616;5.426;2022-08-21T07:51:25;101644.34;;;19.12;85.75
62420;BME280;48460;51.616;5.426;2022-08-21T07:53:52;101640.75;;;19.24;86.06
62420;BME280;48460;51.616;5.426;2022-08-21T07:56:19;101637.41;;;19.33;85.25
62420;BME280;48460;51.616;5.426;2022-08-21T07:58:45;101635.28;;;19.61;83.60
62420;BME280;48460;51.616;5.426;2022-08-21T08:01:10;101642.38;;;19.85;82.53
62420;BME280;48460;51.616;5.426;2022-08-21T08:03:36;101637.06;;;19.96;81.96
62420;BME280;48460;51.616;5.426;2022-08-21T08:06:04;101631.81;;;20.06;80.07
62420;BME280;48460;51.616;5.426;2022-08-21T08:08:31;101643.81;;;20.22;79.46
62420;BME280;48460;51.616;5.426;2022-08-21T08:10:58;101638.47;;;20.34;79.25
62420;BME280;48460;51.616;5.426;2022-08-21T08:13:28;101643.28;;;20.51;78.80
62420;BME280;48460;51.616;5.426;2022-08-21T08:15:53;101631.13;;;20.69;78.47
62420;BME280;48460;51.616;5.426;2022-08-21T08:18:19;101638.88;;;20.84;75.64
62420;BME280;48460;51.616;5.426;2022-08-21T08:20:45;101639.88;;;21.04;76.03
62420;BME280;48460;51.616;5.426;2022-08-21T08:23:12;101633.03;;;21.11;74.78
62420;BME280;48460;51.616;5.426;2022-08-21T08:25:38;101635.78;;;21.21;75.43
62420;BME280;48460;51.616;5.426;2022-08-21T08:28:05;101633.63;;;21.14;74.32
62420;BME280;48460;51.616;5.426;2022-08-21T08:30:30;101626.66;;;21.23;73.98
62420;BME280;48460;51.616;5.426;2022-08-21T08:32:56;101632.16;;;21.22;74.12
62420;BME280;48460;51.616;5.426;2022-08-21T08:35:22;101630.03;;;21.36;73.52
62420;BME280;48460;51.616;5.426;2022-08-21T08:37:48;101627.41;;;21.46;73.21
62420;BME280;48460;51.616;5.426;2022-08-21T08:40:22;101628.13;;;21.69;72.91
62420;BME280;48460;51.616;5.426;2022-08-21T08:42:50;101621.72;;;21.60;71.82
62420;BME280;48460;51.616;5.426;2022-08-21T08:45:20;101622.50;;;21.72;73.37
62420;BME280;48460;51.616;5.426;2022-08-21T08:47:53;101611.78;;;22.13;70.83
62420;BME280;48460;51.616;5.426;2022-08-21T08:50:47;101613.47;;;22.54;70.38
62420;BME280;48460;51.616;5.426;2022-08-21T08:53:33;101607.81;;;22.47;69.31
62420;BME280;48460;51.616;5.426;2022-08-21T08:56:03;101610.09;;;22.81;69.47
62420;BME280;48460;51.616;5.426;2022-08-21T08:58:31;101611.69;;;22.93;67.33
62420;BME280;48460;51.616;5.426;2022-08-21T09:01:00;101602.91;;;22.91;67.11
62420;BME280;48460;51.616;5.426;2022-08-21T09:03:28;101600.53;;;23.08;65.98
62420;BME280;48460;51.616;5.426;2022-08-21T09:06:11;101600.53;;;23.17;65.54
62420;BME280;48460;51.616;5.426;2022-08-21T09:12:04;101596.69;;;23.30;65.02
62420;BME280;48460;51.616;5.426;2022-08-21T09:26:07;101590.25;;;23.70;59.62
62420;BME280;48460;51.616;5.426;2022-08-21T09:28:34;101594.25;;;23.56;59.24
62420;BME280;48460;51.616;5.426;2022-08-21T09:31:04;101593.06;;;23.68;60.62
62420;BME280;48460;51.616;5.426;2022-08-21T09:33:33;101586.28;;;23.74;59.73
62420;BME280;48460;51.616;5.426;2022-08-21T09:36:01;101588.09;;;23.73;58.93
62420;BME280;48460;51.616;5.426;2022-08-21T09:38:32;101594.53;;;23.90;58.19
62420;BME280;48460;51.616;5.426;2022-08-21T09:41:07;101591.78;;;24.09;56.45
62420;BME280;48460;51.616;5.426;2022-08-21T09:43:34;101598.38;;;24.15;55.92
62420;BME280;48460;51.616;5.426;2022-08-21T09:48:27;101600.88;;;24.72;54.59
62420;BME280;48460;51.616;5.426;2022-08-21T09:51:06;101599.84;;;25.09;51.85
62420;BME280;48460;51.616;5.426;2022-08-21T09:53:32;101594.66;;;25.33;51.72
62420;BME280;48460;51.616;5.426;2022-08-21T09:56:26;101592.22;;;25.22;52.80
62420;BME280;48460;51.616;5.426;2022-08-21T09:59:18;101590.41;;;25.22;52.96
62420;BME280;48460;51.616;5.426;2022-08-21T10:01:47;101596.81;;;25.82;52.05
62420;BME280;48460;51.616;5.426;2022-08-21T10:04:13;101596.06;;;25.98;49.68
62420;BME280;48460;51.616;5.426;2022-08-21T10:06:39;101589.31;;;26.02;50.27
62420;BME280;48460;51.616;5.426;2022-08-21T10:09:12;101591.38;;;26.08;49.71
62420;BME280;48460;51.616;5.426;2022-08-21T10:11:39;101578.88;;;26.49;49.71
62420;BME280;48460;51.616;5.426;2022-08-21T10:16:57;101580.56;;;26.50;48.90
62420;BME280;48460;51.616;5.426;2022-08-21T10:19:43;101593.50;;;25.62;48.52
62420;BME280;48460;51.616;5.426;2022-08-21T10:25:21;101602.69;;;25.51;48.08
62420;BME280;48460;51.616;5.426;2022-08-21T10:28:11;101597.41;;;25.76;48.62
62420;BME280;48460;51.616;5.426;2022-08-21T10:31:00;101586.75;;;26.43;47.22
62420;BME280;48460;51.616;5.426;2022-08-21T10:36:20;101574.50;;;26.56;46.96
62420;BME280;48460;51.616;5.426;2022-08-21T10:52:34;101582.69;;;26.30;46.44
62420;BME280;48460;51.616;5.426;2022-08-21T10:55:14;101575.03;;;26.09;47.53
62420;BME280;48460;51.616;5.426;2022-08-21T10:58:01;101577.03;;;26.66;46.84
62420;BME280;48460;51.616;5.426;2022-08-21T11:01:00;101576.72;;;26.69;43.32
62420;BME280;48460;51.616;5.426;2022-08-21T11:06:13;101565.75;;;26.63;44.70
62420;BME280;48460;51.616;5.426;2022-08-21T11:08:43;101563.38;;;26.51;44.86
62420;BME280;48460;51.616;5.426;2022-08-21T11:11:36;101562.00;;;26.55;45.71
62420;BME280;48460;51.616;5.426;2022-08-21T11:17:02;101571.59;;;26.42;47.03
62420;BME280;48460;51.616;5.426;2022-08-21T11:22:21;101572.00;;;25.70;45.64
62420;BME280;48460;51.616;5.426;2022-08-21T11:24:54;101568.66;;;25.76;46.52
62420;BME280;48460;51.616;5.426;2022-08-21T11:27:50;101581.88;;;25.35;47.45
62420;BME280;48460;51.616;5.426;2022-08-21T11:30:20;101574.97;;;25.33;46.46
62420;BME280;48460;51.616;5.426;2022-08-21T11:35:47;101561.97;;;26.47;46.50
62420;BME280;48460;51.616;5.426;2022-08-21T11:38:30;101562.53;;;27.00;45.55
62420;BME280;48460;51.616;5.426;2022-08-21T11:47:08;101554.59;;;26.57;44.00
62420;BME280;48460;51.616;5.426;2022-08-21T11:52:43;101568.59;;;26.86;43.54
62420;BME280;48460;51.616;5.426;2022-08-21T11:57:56;101571.25;;;26.45;43.35
62420;BME280;48460;51.616;5.426;2022-08-21T12:00:36;101582.09;;;26.69;44.55
62420;BME280;48460;51.616;5.426;2022-08-21T12:03:12;101576.84;;;27.49;42.48
62420;BME280;48460;51.616;5.426;2022-08-21T12:05:41;101573.09;;;27.59;42.88
62420;BME280;48460;51.616;5.426;2022-08-21T12:08:14;101573.66;;;27.30;43.09
62420;BME280;48460;51.616;5.426;2022-08-21T12:13:33;101569.47;;;26.78;44.76
62420;BME280;48460;51.616;5.426;2022-08-21T12:16:24;101565.22;;;27.08;43.41
62420;BME280;48460;51.616;5.426;2022-08-21T12:19:11;101571.75;;;27.55;43.08
62420;BME280;48460;51.616;5.426;2022-08-21T12:21:49;101572.66;;;27.86;41.74
62420;BME280;48460;51.616;5.426;2022-08-21T12:24:17;101570.59;;;28.59;40.11
62420;BME280;48460;51.616;5.426;2022-08-21T12:29:29;101571.47;;;29.80;37.14
62420;BME280;48460;51.616;5.426;2022-08-21T12:34:48;101571.31;;;30.17;35.02
62420;BME280;48460;51.616;5.426;2022-08-21T12:37:20;101564.16;;;29.36;35.22
62420;BME280;48460;51.616;5.426;2022-08-21T12:39:49;101568.47;;;28.69;36.49
62420;BME280;48460;51.616;5.426;2022-08-21T12:42:21;101564.94;;;28.92;36.87
62420;BME280;48460;51.616;5.426;2022-08-21T12:44:57;101557.03;;;28.05;37.78
62420;BME280;48460;51.616;5.426;2022-08-21T12:47:34;101558.00;;;28.43;36.86
62420;BME280;48460;51.616;5.426;2022-08-21T12:50:11;101563.88;;;29.16;36.02
62420;BME280;48460;51.616;5.426;2022-08-21T12:52:51;101556.38;;;30.07;35.22
62420;BME280;48460;51.616;5.426;2022-08-21T12:55:27;101569.22;;;30.49;32.83
62420;BME280;48460;51.616;5.426;2022-08-21T12:57:53;101562.53;;;30.15;32.06
62420;BME280;48460;51.616;5.426;2022-08-21T13:00:24;101555.59;;;30.13;32.62
62420;BME280;48460;51.616;5.426;2022-08-21T13:02:50;101558.19;;;30.57;32.36
62420;BME280;48460;51.616;5.426;2022-08-21T13:05:44;101574.88;;;30.76;33.23
62420;BME280;48460;51.616;5.426;2022-08-21T13:08:11;101565.50;;;30.57;32.07
62420;BME280;48460;51.616;5.426;2022-08-21T13:10:39;101567.22;;;30.07;32.62
62420;BME280;48460;51.616;5.426;2022-08-21T13:13:09;101572.47;;;29.19;35.38
62420;BME280;48460;51.616;5.426;2022-08-21T13:15:40;101577.41;;;27.76;36.39
62420;BME280;48460;51.616;5.426;2022-08-21T13:18:07;101573.22;;;27.65;38.26
62420;BME280;48460;51.616;5.426;2022-08-21T13:20:38;101568.00;;;28.11;37.43
62420;BME280;48460;51.616;5.426;2022-08-21T13:23:20;101566.13;;;29.57;35.55
62420;BME280;48460;51.616;5.426;2022-08-21T13:25:50;101573.56;;;29.78;34.16
62420;BME280;48460;51.616;5.426;2022-08-21T13:28:19;101563.31;;;29.94;34.90
62420;BME280;48460;51.616;5.426;2022-08-21T13:30:53;101564.81;;;29.97;34.22
62420;BME280;48460;51.616;5.426;2022-08-21T13:33:25;101575.09;;;28.90;35.25
62420;BME280;48460;51.616;5.426;2022-08-21T13:36:03;101560.69;;;27.81;37.32
62420;BME280;48460;51.616;5.426;2022-08-21T13:38:44;101565.91;;;27.10;39.06
62420;BME280;48460;51.616;5.426;2022-08-21T13:44:20;101565.56;;;27.05;40.39
62420;BME280;48460;51.616;5.426;2022-08-21T13:46:54;101567.56;;;27.36;39.67
62420;BME280;48460;51.616;5.426;2022-08-21T13:49:26;101561.56;;;27.81;38.18
62420;BME280;48460;51.616;5.426;2022-08-21T13:52:12;101558.50;;;27.20;38.68
62420;BME280;48460;51.616;5.426;2022-08-21T13:54:44;101565.91;;;27.35;40.34
62420;BME280;48460;51.616;5.426;2022-08-21T13:57:45;101559.78;;;27.41;38.70
62420;BME280;48460;51.616;5.426;2022-08-21T14:00:43;101563.38;;;27.25;39.77
62420;BME280;48460;51.616;5.426;2022-08-21T14:06:19;101549.88;;;27.81;38.26
62420;BME280;48460;51.616;5.426;2022-08-21T14:08:56;101548.69;;;27.83;39.24
62420;BME280;48460;51.616;5.426;2022-08-21T14:11:40;101551.97;;;28.02;35.73
62420;BME280;48460;51.616;5.426;2022-08-21T14:17:16;101549.69;;;29.14;34.62
62420;BME280;48460;51.616;5.426;2022-08-21T14:23:34;101540.63;;;29.95;33.40
62420;BME280;48460;51.616;5.426;2022-08-21T14:29:40;101548.38;;;29.10;34.64